sensor_id;sensor_type;location;lat;lon;timestamp;pressure;altitude;pressure_sealevel;temperature;humidity
76404;BME280;65232;48.358;2.122;2024-02-23T00:00:15;99044.44;;;5.16;100.00
76404;BME280;65232;48.358;2.122;2024-02-23T00:00:43;99045.56;;;5.23;100.00
76404;BME280;65232;48.358;2.122;2024-02-23T00:01:08;99045.56;;;5.23;100.00
76404;BME280;65232;48.358;2.122;2024-02-23T00:01:36;99044.19;;;5.28;100.00
76404;BME280;65232;48.358;2.122;2024-02-23T00:02:01;99043.06;;;5.21;100.00
76404;BME280;65232;48.358;2.122;2024-02-23T00:02:26;99046.53;;;5.12;100.00
76404;BME280;65232;48.358;2.122;2024-02-23T00:02:52;99047.50;;;5.21;100.00
76404;BME280;65232;48.358;2.122;2024-02-23T00:03:19;99045.69;;;5.21;100.00
76404;BME280;65232;48.358;2.122;2024-02-23T00:03:44;99047.50;;;5.11;100.00
76404;BME280;65232;48.358;2.122;2024-02-23T00:04:10;99046.66;;;5.11;100.00
76404;BME280;65232;48.358;2.122;2024-02-23T00:04:35;99046.69;;;5.20;100.00
76404;BME280;65232;48.358;2.122;2024-02-23T00:05:01;99036.63;;;5.14;100.00
76404;BME280;65232;48.358;2.122;2024-02-23T00:05:26;99045.84;;;5.20;100.00
76404;BME280;65232;48.358;2.122;2024-02-23T00:05:51;99040.25;;;5.23;100.00
76404;BME280;65232;48.358;2.122;2024-02-23T00:06:17;99038.91;;;5.28;100.00
76404;BME280;65232;48.358;2.122;2024-02-23T00:06:43;99041.69;;;5.27;100.00
76404;BME280;65232;48.358;2.122;2024-02-23T00:07:08;99037.63;;;5.23;100.00
76404;BME280;65232;48.358;2.122;2024-02-23T00:07:33;99040.00;;;5.16;100.00
76404;BME280;65232;48.358;2.122;2024-02-23T00:07:59;99049.16;;;5.03;100.00
76404;BME280;65232;48.358;2.122;2024-02-23T00:08:24;99052.22;;;5.08;100.00
76404;BME280;65232;48.358;2.122;2024-02-23T00:08:49;99039.41;;;5.13;100.00
76404;BME280;65232;48.358;2.122;2024-02-23T00:09:15;99030.75;;;5.11;100.00
76404;BME280;65232;48.358;2.122;2024-02-23T00:09:40;99040.13;;;5.24;100.00
76404;BME280;65232;48.358;2.122;2024-02-23T00:10:06;99041.09;;;5.23;100.00
76404;BME280;65232;48.358;2.122;2024-02-23T00:10:31;99039.69;;;5.10;100.00
76404;BME280;65232;48.358;2.122;2024-02-23T00:10:57;99024.75;;;5.09;100.00
76404;BME280;65232;48.358;2.122;2024-02-23T00:11:23;99034.66;;;5.07;100.00
76404;BME280;65232;48.358;2.122;2024-02-23T00:11:48;99028.50;;;5.06;100.00
76404;BME280;65232;48.358;2.122;2024-02-23T00:12:14;99038.44;;;5.14;100.00
76404;BME280;65232;48.358;2.122;2024-02-23T00:12:40;99040.13;;;5.15;100.00
76404;BME280;65232;48.358;2.122;2024-02-23T00:13:06;99027.44;;;5.18;100.00
76404;BME280;65232;48.358;2.122;2024-02-23T00:13:31;99033.72;;;5.17;100.00
76404;BME280;65232;48.358;2.122;2024-02-23T00:13:56;99030.50;;;5.23;100.00
76404;BME280;65232;48.358;2.122;2024-02-23T00:14:22;99033.59;;;5.19;100.00
76404;BME280;65232;48.358;2.122;2024-02-23T00:14:47;99025.75;;;5.17;100.00
76404;BME280;65232;48.358;2.122;2024-02-23T00:15:13;99024.94;;;5.26;100.00
76404;BME280;65232;48.358;2.122;2024-02-23T00:15:38;99037.34;;;5.36;100.00
76404;BME280;65232;48.358;2.122;2024-02-23T00:16:04;99017.41;;;5.31;100.00
76404;BME280;65232;48.358;2.122;2024-02-23T00:16:29;99023.25;;;5.35;100.00
76404;BME280;65232;48.358;2.122;2024-02-23T00:16:55;99024.78;;;5.38;100.00
76404;BME280;65232;48.358;2.122;2024-02-23T00:17:21;99033.19;;;5.33;100.00
76404;BME280;65232;48.358;2.122;2024-02-23T00:17:47;99024.94;;;5.26;100.00
76404;BME280;65232;48.358;2.122;2024-02-23T00:18:12;99025.38;;;5.31;100.00
76404;BME280;65232;48.358;2.122;2024-02-23T00:18:40;99029.00;;;5.30;100.00
76404;BME280;65232;48.358;2.122;2024-02-23T00:19:07;99034.69;;;5.26;100.00
76404;BME280;65232;48.358;2.122;2024-02-23T00:19:33;99018.22;;;5.22;100.00
76404;BME280;65232;48.358;2.122;2024-02-23T00:19:58;99029.13;;;5.19;100.00
76404;BME280;65232;48.358;2.122;2024-02-23T00:20:24;99024.34;;;5.23;100.00
76404;BME280;65232;48.358;2.122;2024-02-23T00:20:49;99025.63;;;5.19;100.00
76404;BME280;65232;48.358;2.122;2024-02-23T00:21:14;99025.47;;;5.11;100.00
76404;BME280;65232;48.358;2.122;2024-02-23T00:21:40;99032.84;;;5.07;100.00
76404;BME280;65232;48.358;2.122;2024-02-23T00:22:07;99025.31;;;5.03;100.00
76404;BME280;65232;48.358;2.122;2024-02-23T00:22:32;99025.72;;;5.08;100.00
76404;BME280;65232;48.358;2.122;2024-02-23T00:22:59;99025.59;;;5.09;100.00
76404;BME280;65232;48.358;2.122;2024-02-23T00:23:24;99028.81;;;5.03;100.00
76404;BME280;65232;48.358;2.122;2024-02-23T00:23:50;99032.56;;;5.10;100.00
76404;BME280;65232;48.358;2.122;2024-02-23T00:24:16;99034.38;;;5.10;100.00
76404;BME280;65232;48.358;2.122;2024-02-23T00:24:41;99034.13;;;5.13;100.00
76404;BME280;65232;48.358;2.122;2024-02-23T00:25:07;99031.91;;;5.18;100.00
76404;BME280;65232;48.358;2.122;2024-02-23T00:25:33;99040.41;;;5.21;100.00
76404;BME280;65232;48.358;2.122;2024-02-23T00:25:58;99032.88;;;5.17;100.00
76404;BME280;65232;48.358;2.122;2024-02-23T00:26:23;99034.41;;;5.19;100.00
76404;BME280;65232;48.358;2.122;2024-02-23T00:26:49;99026.75;;;5.26;100.00
76404;BME280;65232;48.358;2.122;2024-02-23T00:27:16;99036.63;;;5.24;100.00
76404;BME280;65232;48.358;2.122;2024-02-23T00:27:41;99034.00;;;5.24;100.00
76404;BME280;65232;48.358;2.122;2024-02-23T00:28:07;99028.94;;;5.21;100.00
76404;BME280;65232;48.358;2.122;2024-02-23T00:28:33;99022.84;;;5.30;100.00
76404;BME280;65232;48.358;2.122;2024-02-23T00:28:58;99026.19;;;5.32;100.00
76404;BME280;65232;48.358;2.122;2024-02-23T00:29:23;99021.88;;;5.31;100.00
76404;BME280;65232;48.358;2.122;2024-02-23T00:29:49;99019.75;;;5.35;100.00
76404;BME280;65232;48.358;2.122;2024-02-23T00:30:14;99031.91;;;5.37;100.00
76404;BME280;65232;48.358;2.122;2024-02-23T00:30:40;99031.91;;;5.37;100.00
76404;BME280;65232;48.358;2.122;2024-02-23T00:31:05;99029.53;;;5.24;100.00
76404;BME280;65232;48.358;2.122;2024-02-23T00:31:31;99025.75;;;5.27;100.00
76404;BME280;65232;48.358;2.122;2024-02-23T00:31:56;99023.13;;;5.27;100.00
76404;BME280;65232;48.358;2.122;2024-02-23T00:32:21;99031.22;;;5.25;100.00
76404;BME280;65232;48.358;2.122;2024-02-23T00:32:47;99029.94;;;5.20;100.00
76404;BME280;65232;48.358;2.122;2024-02-23T00:33:12;99028.28;;;5.28;100.00
76404;BME280;65232;48.358;2.122;2024-02-23T00:33:38;99020.59;;;5.35;100.00
76404;BME280;65232;48.358;2.122;2024-02-23T00:34:07;99028.00;;;5.31;100.00
76404;BME280;65232;48.358;2.122;2024-02-23T00:34:35;99023.94;;;5.27;100.00
76404;BME280;65232;48.358;2.122;2024-02-23T00:35:02;99025.75;;;5.27;100.00
76404;BME280;65232;48.358;2.122;2024-02-23T00:35:27;99023.25;;;5.16;100.00
76404;BME280;65232;48.358;2.122;2024-02-23T00:35:53;99019.75;;;5.15;100.00
76404;BME280;65232;48.358;2.122;2024-02-23T00:36:18;99029.25;;;5.18;100.00
76404;BME280;65232;48.358;2.122;2024-02-23T00:36:44;99028.81;;;5.13;100.00
76404;BME280;65232;48.358;2.122;2024-02-23T00:37:12;99022.00;;;5.29;100.00
76404;BME280;65232;48.358;2.122;2024-02-23T00:37:37;99022.84;;;5.40;100.00
76404;BME280;65232;48.358;2.122;2024-02-23T00:38:03;99016.84;;;5.28;100.00
76404;BME280;65232;48.358;2.122;2024-02-23T00:38:28;99010.44;;;5.30;100.00
76404;BME280;65232;48.358;2.122;2024-02-23T00:38:53;99022.44;;;5.44;100.00
76404;BME280;65232;48.358;2.122;2024-02-23T00:39:19;99016.69;;;5.39;100.00
76404;BME280;65232;48.358;2.122;2024-02-23T00:39:44;99017.81;;;5.37;100.00
76404;BME280;65232;48.358;2.122;2024-02-23T00:40:10;99020.75;;;5.43;100.00
76404;BME280;65232;48.358;2.122;2024-02-23T00:40:36;99014.88;;;5.40;100.00
76404;BME280;65232;48.358;2.122;2024-02-23T00:41:02;99026.78;;;5.45;100.00
76404;BME280;65232;48.358;2.122;2024-02-23T00:41:27;99021.16;;;5.29;100.00
76404;BME280;65232;48.358;2.122;2024-02-23T00:41:53;99018.06;;;5.24;100.00
76404;BME280;65232;48.358;2.122;2024-02-23T00:42:18;99009.41;;;5.22;100.00
76404;BME280;65232;48.358;2.122;2024-02-23T00:42:45;99015.56;;;5.22;100.00
76404;BME280;65232;48.358;2.122;2024-02-23T00:43:11;99017.25;;;5.23;100.00
76404;BME280;65232;48.358;2.122;2024-02-23T00:43:40;99013.34;;;5.27;100.00
76404;BME280;65232;48.358;2.122;2024-02-23T00:44:05;99018.66;;;5.27;100.00
76404;BME280;65232;48.358;2.122;2024-02-23T00:44:31;99015.03;;;5.28;100.00
76404;BME280;65232;48.358;2.122;2024-02-23T00:44:56;99010.13;;;5.24;100.00
76404;BME280;65232;48.358;2.122;2024-02-23T00:45:22;99017.53;;;5.30;100.00
76404;BME280;65232;48.358;2.122;2024-02-23T00:45:47;99017.81;;;5.37;100.00
76404;BME280;65232;48.358;2.122;2024-02-23T00:46:13;99018.38;;;5.40;100.00
76404;BME280;65232;48.358;2.122;2024-02-23T00:46:39;99012.94;;;5.32;100.00
76404;BME280;65232;48.358;2.122;2024-02-23T00:47:05;99008.19;;;5.26;100.00
76404;BME280;65232;48.358;2.122;2024-02-23T00:47:30;99024.09;;;5.26;100.00
76404;BME280;65232;48.358;2.122;2024-02-23T00:47:55;99022.84;;;5.30;100.00
76404;BME280;65232;48.358;2.122;2024-02-23T00:48:22;99024.50;;;5.21;100.00
76404;BME280;65232;48.358;2.122;2024-02-23T00:48:47;99023.13;;;5.27;100.00
76404;BME280;65232;48.358;2.122;2024-02-23T00:49:13;99023.94;;;5.18;100.00
76404;BME280;65232;48.358;2.122;2024-02-23T00:49:38;99026.59;;;5.18;100.00
76404;BME280;65232;48.358;2.122;2024-02-23T00:50:04;99026.59;;;5.27;100.00
76404;BME280;65232;48.358;2.122;2024-02-23T00:50:29;99024.34;;;5.23;100.00
76404;BME280;65232;48.358;2.122;2024-02-23T00:50:55;99025.19;;;5.14;100.00
76404;BME280;65232;48.358;2.122;2024-02-23T00:51:20;99024.09;;;5.16;100.00
76404;BME280;65232;48.358;2.122;2024-02-23T00:51:46;99027.97;;;5.12;100.00
76404;BME280;65232;48.358;2.122;2024-02-23T00:52:11;99018.34;;;5.11;100.00
76404;BME280;65232;48.358;2.122;2024-02-23T00:52:36;99017.38;;;5.12;100.00
76404;BME280;65232;48.358;2.122;2024-02-23T00:53:02;99020.41;;;5.08;100.00
76404;BME280;65232;48.358;2.122;2024-02-23T00:53:27;99015.53;;;5.03;100.00
76404;BME280;65232;48.358;2.122;2024-02-23T00:53:53;99024.09;;;5.16;100.00
76404;BME280;65232;48.358;2.122;2024-02-23T00:54:18;99021.97;;;5.20;100.00
76404;BME280;65232;48.358;2.122;2024-02-23T00:54:44;99023.81;;;5.19;100.00
76404;BME280;65232;48.358;2.122;2024-02-23T00:55:10;99018.53;;;5.29;100.00
76404;BME280;65232;48.358;2.122;2024-02-23T00:55:35;99018.78;;;5.36;100.00
76404;BME280;65232;48.358;2.122;2024-02-23T00:56:00;99019.50;;;5.38;100.00
76404;BME280;65232;48.358;2.122;2024-02-23T00:56:26;99022.00;;;5.39;100.00
76404;BME280;65232;48.358;2.122;2024-02-23T00:56:52;99019.34;;;5.39;100.00
76404;BME280;65232;48.358;2.122;2024-02-23T00:57:18;99015.72;;;5.40;100.00
76404;BME280;65232;48.358;2.122;2024-02-23T00:57:51;99007.19;;;5.37;100.00
76404;BME280;65232;48.358;2.122;2024-02-23T00:58:16;99020.19;;;5.30;100.00
76404;BME280;65232;48.358;2.122;2024-02-23T00:58:42;99014.19;;;5.28;100.00
76404;BME280;65232;48.358;2.122;2024-02-23T00:59:07;99026.03;;;5.24;100.00
76404;BME280;65232;48.358;2.122;2024-02-23T00:59:32;99020.72;;;5.24;100.00
76404;BME280;65232;48.358;2.122;2024-02-23T00:59:58;99017.94;;;5.25;100.00
76404;BME280;65232;48.358;2.122;2024-02-23T01:00:23;99019.09;;;5.32;100.00
76404;BME280;65232;48.358;2.122;2024-02-23T01:00:49;99014.63;;;5.33;100.00
76404;BME280;65232;48.358;2.122;2024-02-23T01:01:14;99020.59;;;5.35;100.00
76404;BME280;65232;48.358;2.122;2024-02-23T01:01:40;99018.78;;;5.36;100.00
76404;BME280;65232;48.358;2.122;2024-02-23T01:02:05;99012.38;;;5.28;100.00
76404;BME280;65232;48.358;2.122;2024-02-23T01:02:31;99016.13;;;5.36;100.00
76404;BME280;65232;48.358;2.122;2024-02-23T01:02:58;99010.56;;;5.39;100.00
76404;BME280;65232;48.358;2.122;2024-02-23T01:03:24;99022.72;;;5.41;100.00
76404;BME280;65232;48.358;2.122;2024-02-23T01:03:50;99014.75;;;5.31;100.00
76404;BME280;65232;48.358;2.122;2024-02-23T01:04:15;99016.31;;;5.34;100.00
76404;BME280;65232;48.358;2.122;2024-02-23T01:04:41;99023.41;;;5.34;100.00
76404;BME280;65232;48.358;2.122;2024-02-23T01:05:06;99017.53;;;5.40;100.00
76404;BME280;65232;48.358;2.122;2024-02-23T01:05:34;99014.63;;;5.43;100.00
76404;BME280;65232;48.358;2.122;2024-02-23T01:05:59;99017.28;;;5.43;100.00
76404;BME280;65232;48.358;2.122;2024-02-23T01:06:25;99014.47;;;5.44;100.00
76404;BME280;65232;48.358;2.122;2024-02-23T01:06:50;98990.44;;;5.36;100.00
76404;BME280;65232;48.358;2.122;2024-02-23T01:07:16;99011.81;;;5.35;100.00
76404;BME280;65232;48.358;2.122;2024-02-23T01:07:41;99006.63;;;5.23;100.00
76404;BME280;65232;48.358;2.122;2024-02-23T01:08:06;99006.50;;;5.25;100.00
76404;BME280;65232;48.358;2.122;2024-02-23T01:08:32;99007.78;;;5.30;100.00
76404;BME280;65232;48.358;2.122;2024-02-23T01:08:57;99008.19;;;5.36;100.00
76404;BME280;65232;48.358;2.122;2024-02-23T01:09:22;98997.16;;;5.30;100.00
76404;BME280;65232;48.358;2.122;2024-02-23T01:09:48;99011.41;;;5.39;100.00
76404;BME280;65232;48.358;2.122;2024-02-23T01:10:13;99002.59;;;5.39;100.00
76404;BME280;65232;48.358;2.122;2024-02-23T01:10:39;98997.03;;;5.32;100.00
76404;BME280;65232;48.358;2.122;2024-02-23T01:11:04;98993.94;;;5.37;100.00
76404;BME280;65232;48.358;2.122;2024-02-23T01:11:29;98997.88;;;5.42;100.00
76404;BME280;65232;48.358;2.122;2024-02-23T01:11:55;98993.97;;;5.46;100.00
76404;BME280;65232;48.358;2.122;2024-02-23T01:12:20;98999.53;;;5.43;100.00
76404;BME280;65232;48.358;2.122;2024-02-23T01:12:46;98990.88;;;5.41;100.00
76404;BME280;65232;48.358;2.122;2024-02-23T01:13:11;98991.44;;;5.35;100.00
76404;BME280;65232;48.358;2.122;2024-02-23T01:13:36;98986.00;;;5.37;100.00
76404;BME280;65232;48.358;2.122;2024-02-23T01:14:02;98994.50;;;5.40;100.00
76404;BME280;65232;48.358;2.122;2024-02-23T01:14:27;98992.28;;;5.45;100.00
76404;BME280;65232;48.358;2.122;2024-02-23T01:14:53;98985.88;;;5.48;100.00
76404;BME280;65232;48.358;2.122;2024-02-23T01:15:18;98988.34;;;5.49;100.00
76404;BME280;65232;48.358;2.122;2024-02-23T01:15:44;98988.34;;;5.49;100.00
76404;BME280;65232;48.358;2.122;2024-02-23T01:16:09;98985.00;;;5.38;100.00
76404;BME280;65232;48.358;2.122;2024-02-23T01:16:35;98982.22;;;5.39;100.00
76404;BME280;65232;48.358;2.122;2024-02-23T01:17:00;98979.00;;;5.36;100.00
76404;BME280;65232;48.358;2.122;2024-02-23T01:17:26;98985.44;;;5.33;100.00
76404;BME280;65232;48.358;2.122;2024-02-23T01:17:51;98996.72;;;5.35;100.00
76404;BME280;65232;48.358;2.122;2024-02-23T01:18:17;98979.56;;;5.39;100.00
76404;BME280;65232;48.358;2.122;2024-02-23T01:18:42;98984.34;;;5.45;100.00
76404;BME280;65232;48.358;2.122;2024-02-23T01:19:07;98988.78;;;5.35;100.00
76404;BME280;65232;48.358;2.122;2024-02-23T01:19:34;98987.53;;;5.39;100.00
76404;BME280;65232;48.358;2.122;2024-02-23T01:19:59;98984.34;;;5.45;100.00
76404;BME280;65232;48.358;2.122;2024-02-23T01:20:25;98987.13;;;5.44;100.00
76404;BME280;65232;48.358;2.122;2024-02-23T01:20:51;98979.44;;;5.50;100.00
76404;BME280;65232;48.358;2.122;2024-02-23T01:21:16;98994.78;;;5.56;100.00
76404;BME280;65232;48.358;2.122;2024-02-23T01:21:41;98982.78;;;5.62;100.00
76404;BME280;65232;48.358;2.122;2024-02-23T01:22:07;98985.44;;;5.52;100.00
76404;BME280;65232;48.358;2.122;2024-02-23T01:22:32;98988.25;;;5.60;100.00
76404;BME280;65232;48.358;2.122;2024-02-23T01:22:58;98981.97;;;5.61;100.00
76404;BME280;65232;48.358;2.122;2024-02-23T01:23:23;98983.22;;;5.57;100.00
76404;BME280;65232;48.358;2.122;2024-02-23T01:23:48;98980.97;;;5.53;100.00
76404;BME280;65232;48.358;2.122;2024-02-23T01:24:14;98988.66;;;5.46;100.00
76404;BME280;65232;48.358;2.122;2024-02-23T01:24:39;98978.31;;;5.43;100.00
76404;BME280;65232;48.358;2.122;2024-02-23T01:25:05;98989.50;;;5.47;100.00
76404;BME280;65232;48.358;2.122;2024-02-23T01:25:30;98987.38;;;5.41;100.00
76404;BME280;65232;48.358;2.122;2024-02-23T01:25:56;98988.34;;;5.49;100.00
76404;BME280;65232;48.358;2.122;2024-02-23T01:26:24;98985.56;;;5.51;100.00
76404;BME280;65232;48.358;2.122;2024-02-23T01:26:49;98980.13;;;5.43;100.00
76404;BME280;65232;48.358;2.122;2024-02-23T01:27:15;98982.38;;;5.47;100.00
76404;BME280;65232;48.358;2.122;2024-02-23T01:27:40;98985.56;;;5.51;100.00
76404;BME280;65232;48.358;2.122;2024-02-23T01:28:05;99003.03;;;5.53;100.00
76404;BME280;65232;48.358;2.122;2024-02-23T01:28:31;98988.09;;;5.52;100.00
76404;BME280;65232;48.358;2.122;2024-02-23T01:28:56;98986.41;;;5.51;100.00
76404;BME280;65232;48.358;2.122;2024-02-23T01:29:22;98983.34;;;5.56;100.00
76404;BME280;65232;48.358;2.122;2024-02-23T01:29:48;98993.38;;;5.52;100.00
76404;BME280;65232;48.358;2.122;2024-02-23T01:30:13;98987.81;;;5.55;100.00
76404;BME280;65232;48.358;2.122;2024-02-23T01:30:39;98986.28;;;5.43;100.00
76404;BME280;65232;48.358;2.122;2024-02-23T01:31:04;98989.06;;;5.42;100.00
76404;BME280;65232;48.358;2.122;2024-02-23T01:31:32;98992.16;;;5.47;100.00
76404;BME280;65232;48.358;2.122;2024-02-23T01:31:58;98990.63;;;5.44;100.00
76404;BME280;65232;48.358;2.122;2024-02-23T01:32:24;98983.75;;;5.51;100.00
76404;BME280;65232;48.358;2.122;2024-02-23T01:32:49;98994.66;;;5.58;100.00
76404;BME280;65232;48.358;2.122;2024-02-23T01:33:15;98993.66;;;5.49;100.00
76404;BME280;65232;48.358;2.122;2024-02-23T01:33:41;98996.75;;;5.45;100.00
76404;BME280;65232;48.358;2.122;2024-02-23T01:34:06;98996.19;;;5.41;100.00
76404;BME280;65232;48.358;2.122;2024-02-23T01:34:32;98985.72;;;5.40;100.00
76404;BME280;65232;48.358;2.122;2024-02-23T01:34:58;98990.19;;;5.39;100.00
76404;BME280;65232;48.358;2.122;2024-02-23T01:35:24;98991.72;;;5.42;100.00
76404;BME280;65232;48.358;2.122;2024-02-23T01:35:49;98991.00;;;5.49;100.00
76404;BME280;65232;48.358;2.122;2024-02-23T01:36:16;98979.72;;;5.47;100.00
76404;BME280;65232;48.358;2.122;2024-02-23T01:36:41;98980.72;;;5.46;100.00
76404;BME280;65232;48.358;2.122;2024-02-23T01:37:07;98984.06;;;5.48;100.00
76404;BME280;65232;48.358;2.122;2024-02-23T01:37:33;98974.56;;;5.46;100.00
76404;BME280;65232;48.358;2.122;2024-02-23T01:37:58;98982.25;;;5.49;100.00
76404;BME280;65232;48.358;2.122;2024-02-23T01:38:24;98983.47;;;5.54;100.00
76404;BME280;65232;48.358;2.122;2024-02-23T01:38:50;98982.91;;;5.51;100.00
76404;BME280;65232;48.358;2.122;2024-02-23T01:39:15;98987.81;;;5.55;100.00
76404;BME280;65232;48.358;2.122;2024-02-23T01:39:40;98977.19;;;5.55;100.00
76404;BME280;65232;48.358;2.122;2024-02-23T01:40:06;98987.69;;;5.57;100.00
76404;BME280;65232;48.358;2.122;2024-02-23T01:40:32;98984.59;;;5.52;100.00
76404;BME280;65232;48.358;2.122;2024-02-23T01:40:58;98997.72;;;5.53;100.00
76404;BME280;65232;48.358;2.122;2024-02-23T01:41:24;98984.59;;;5.42;100.00
76404;BME280;65232;48.358;2.122;2024-02-23T01:41:49;98986.00;;;5.46;100.00
76404;BME280;65232;48.358;2.122;2024-02-23T01:42:14;98973.44;;;5.48;100.00
76404;BME280;65232;48.358;2.122;2024-02-23T01:42:40;98978.75;;;5.58;100.00
76404;BME280;65232;48.358;2.122;2024-02-23T01:43:05;98979.16;;;5.53;100.00
76404;BME280;65232;48.358;2.122;2024-02-23T01:43:31;98984.47;;;5.53;100.00
76404;BME280;65232;48.358;2.122;2024-02-23T01:43:56;98983.06;;;5.59;100.00
76404;BME280;65232;48.358;2.122;2024-02-23T01:44:23;98982.91;;;5.70;100.00
76404;BME280;65232;48.358;2.122;2024-02-23T01:44:48;98979.56;;;5.68;100.00
76404;BME280;65232;48.358;2.122;2024-02-23T01:45:14;98975.50;;;5.74;100.00
76404;BME280;65232;48.358;2.122;2024-02-23T01:45:39;98975.94;;;5.69;100.00
76404;BME280;65232;48.358;2.122;2024-02-23T01:46:05;98969.38;;;5.73;100.00
76404;BME280;65232;48.358;2.122;2024-02-23T01:46:31;98973.00;;;5.72;100.00
76404;BME280;65232;48.358;2.122;2024-02-23T01:46:58;98974.97;;;5.70;100.00
76404;BME280;65232;48.358;2.122;2024-02-23T01:47:24;98963.94;;;5.75;100.00
76404;BME280;65232;48.358;2.122;2024-02-23T01:47:50;98978.31;;;5.72;100.00
76404;BME280;65232;48.358;2.122;2024-02-23T01:48:16;98968.25;;;5.76;100.00
76404;BME280;65232;48.358;2.122;2024-02-23T01:48:41;98963.94;;;5.75;100.00
76404;BME280;65232;48.358;2.122;2024-02-23T01:49:07;98966.13;;;5.79;100.00
76404;BME280;65232;48.358;2.122;2024-02-23T01:49:34;98964.63;;;5.67;100.00
76404;BME280;65232;48.358;2.122;2024-02-23T01:50:00;98962.81;;;5.67;100.00
76404;BME280;65232;48.358;2.122;2024-02-23T01:50:26;98968.69;;;5.61;100.00
76404;BME280;65232;48.358;2.122;2024-02-23T01:50:53;98964.22;;;5.62;100.00
76404;BME280;65232;48.358;2.122;2024-02-23T01:51:19;98973.84;;;5.63;100.00
76404;BME280;65232;48.358;2.122;2024-02-23T01:51:45;98971.88;;;5.65;100.00
76404;BME280;65232;48.358;2.122;2024-02-23T01:52:11;98964.38;;;5.60;100.00
76404;BME280;65232;48.358;2.122;2024-02-23T01:52:38;98968.38;;;5.64;100.00
76404;BME280;65232;48.358;2.122;2024-02-23T01:53:03;98959.31;;;5.67;100.00
76404;BME280;65232;48.358;2.122;2024-02-23T01:53:29;98963.91;;;5.65;100.00
76404;BME280;65232;48.358;2.122;2024-02-23T01:53:55;98966.28;;;5.68;100.00
76404;BME280;65232;48.358;2.122;2024-02-23T01:54:20;98964.91;;;5.64;100.00
76404;BME280;65232;48.358;2.122;2024-02-23T01:54:46;98961.25;;;5.65;100.00
76404;BME280;65232;48.358;2.122;2024-02-23T01:55:11;98967.00;;;5.70;100.00
76404;BME280;65232;48.358;2.122;2024-02-23T01:55:37;98967.13;;;5.68;100.00
76404;BME280;65232;48.358;2.122;2024-02-23T01:56:03;98962.41;;;5.62;100.00
76404;BME280;65232;48.358;2.122;2024-02-23T01:56:30;98964.63;;;5.67;100.00
76404;BME280;65232;48.358;2.122;2024-02-23T01:56:57;98965.91;;;5.63;100.00
76404;BME280;65232;48.358;2.122;2024-02-23T01:57:23;98962.41;;;5.62;100.00
76404;BME280;65232;48.358;2.122;2024-02-23T01:57:49;98968.00;;;5.59;100.00
76404;BME280;65232;48.358;2.122;2024-02-23T01:58:14;98964.91;;;5.64;100.00
76404;BME280;65232;48.358;2.122;2024-02-23T01:58:40;98960.72;;;5.71;100.00
76404;BME280;65232;48.358;2.122;2024-02-23T01:59:05;98956.13;;;5.63;100.00
76404;BME280;65232;48.358;2.122;2024-02-23T01:59:31;98959.31;;;5.67;100.00
76404;BME280;65232;48.358;2.122;2024-02-23T01:59:56;98958.19;;;5.70;100.00
76404;BME280;65232;48.358;2.122;2024-02-23T02:00:23;98955.53;;;5.70;100.00
76404;BME280;65232;48.358;2.122;2024-02-23T02:00:52;98962.53;;;5.61;100.00
76404;BME280;65232;48.358;2.122;2024-02-23T02:01:18;98957.94;;;5.53;100.00
76404;BME280;65232;48.358;2.122;2024-02-23T02:01:43;98959.88;;;5.51;100.00
76404;BME280;65232;48.358;2.122;2024-02-23T02:02:09;98961.00;;;5.58;100.00
76404;BME280;65232;48.358;2.122;2024-02-23T02:02:35;98958.91;;;5.62;100.00
76404;BME280;65232;48.358;2.122;2024-02-23T02:03:00;98959.59;;;5.64;100.00
76404;BME280;65232;48.358;2.122;2024-02-23T02:03:26;98961.00;;;5.58;100.00
76404;BME280;65232;48.358;2.122;2024-02-23T02:03:51;98964.91;;;5.64;100.00
76404;BME280;65232;48.358;2.122;2024-02-23T02:04:17;98958.06;;;5.61;100.00
76404;BME280;65232;48.358;2.122;2024-02-23T02:04:43;98962.25;;;5.64;100.00
76404;BME280;65232;48.358;2.122;2024-02-23T02:05:08;98970.06;;;5.56;100.00
76404;BME280;65232;48.358;2.122;2024-02-23T02:05:36;98965.19;;;5.61;100.00
76404;BME280;65232;48.358;2.122;2024-02-23T02:06:01;98965.91;;;5.63;100.00
76404;BME280;65232;48.358;2.122;2024-02-23T02:06:27;98970.19;;;5.64;100.00
76404;BME280;65232;48.358;2.122;2024-02-23T02:06:52;98965.19;;;5.51;100.00
76404;BME280;65232;48.358;2.122;2024-02-23T02:07:18;98962.81;;;5.58;100.00
76404;BME280;65232;48.358;2.122;2024-02-23T02:07:45;98974.00;;;5.61;100.00
76404;BME280;65232;48.358;2.122;2024-02-23T02:08:12;98969.78;;;5.49;100.00
76404;BME280;65232;48.358;2.122;2024-02-23T02:08:38;98972.16;;;5.52;100.00
76404;BME280;65232;48.358;2.122;2024-02-23T02:09:03;98966.72;;;5.54;100.00
76404;BME280;65232;48.358;2.122;2024-02-23T02:09:29;98970.22;;;5.54;100.00
76404;BME280;65232;48.358;2.122;2024-02-23T02:09:54;98972.16;;;5.52;100.00
76404;BME280;65232;48.358;2.122;2024-02-23T02:10:20;98972.31;;;5.51;100.00
76404;BME280;65232;48.358;2.122;2024-02-23T02:10:46;98970.22;;;5.54;100.00
76404;BME280;65232;48.358;2.122;2024-02-23T02:11:12;98977.75;;;5.49;100.00
76404;BME280;65232;48.358;2.122;2024-02-23T02:11:49;98969.38;;;5.54;100.00
76404;BME280;65232;48.358;2.122;2024-02-23T02:12:15;98976.94;;;5.58;100.00
76404;BME280;65232;48.358;2.122;2024-02-23T02:12:40;98972.56;;;5.67;100.00
76404;BME280;65232;48.358;2.122;2024-02-23T02:13:05;98963.78;;;5.66;100.00
76404;BME280;65232;48.358;2.122;2024-02-23T02:13:31;98971.88;;;5.65;100.00
76404;BME280;65232;48.358;2.122;2024-02-23T02:13:56;98968.25;;;5.66;100.00
76404;BME280;65232;48.358;2.122;2024-02-23T02:14:22;98963.91;;;5.65;100.00
76404;BME280;65232;48.358;2.122;2024-02-23T02:14:47;98965.59;;;5.66;100.00
76404;BME280;65232;48.358;2.122;2024-02-23T02:15:13;98965.19;;;5.61;100.00
76404;BME280;65232;48.358;2.122;2024-02-23T02:15:38;98967.84;;;5.61;100.00
76404;BME280;65232;48.358;2.122;2024-02-23T02:16:04;98948.56;;;5.59;100.00
76404;BME280;65232;48.358;2.122;2024-02-23T02:16:29;98971.88;;;5.65;100.00